Time;durP1;ratioP1;P1;durP2;ratioP2;P2;SDS_P1;SDS_P2;PMS_P1;PMS_P2;Temp;Humidity;BMP_temperature;BMP_pressure;BME280_temperature;BME280_humidity;BME280_pressure;Samples;Min_cycle;Max_cycle;Signal;HPM_P1;HPM_P2
2021/12/08 00:00:27;;;;;;;8.23;5.27;;;;;;;-2.67;100.00;94517.25;1016749;29;20020;-73
2021/12/08 00:00:59;;;;;;;9.77;6.07;;;;;;;-2.72;100.00;94511.94;1017479;29;20111;-73
2021/12/08 00:01:29;;;;;;;8.80;6.05;;;;;;;-2.71;100.00;94509.19;1019800;29;20509;-73
2021/12/08 00:02:00;;;;;;;10.10;5.20;;;;;;;-2.78;100.00;94505.06;1024405;28;20055;-72
2021/12/08 00:02:30;;;;;;;9.17;5.00;;;;;;;-2.71;100.00;94506.59;1031135;28;20559;-70
2021/12/08 00:03:01;;;;;;;8.10;5.27;;;;;;;-2.94;100.00;94467.91;1030250;28;20073;-73
2021/12/08 00:03:32;;;;;;;6.95;5.22;;;;;;;-2.72;100.00;94506.81;1030578;28;20453;-72
2021/12/08 00:04:02;;;;;;;10.00;5.30;;;;;;;-2.72;100.00;94505.03;1031113;28;20026;-73
2021/12/08 00:04:33;;;;;;;11.13;5.97;;;;;;;-2.74;100.00;94507.03;1030401;28;20041;-73
2021/12/08 00:05:05;;;;;;;10.43;5.67;;;;;;;-2.74;100.00;94504.47;1030185;28;20073;-70
2021/12/08 00:05:36;;;;;;;7.55;5.35;;;;;;;-2.75;100.00;94499.53;1032823;28;20084;-72
2021/12/08 00:06:07;;;;;;;8.77;5.38;;;;;;;-2.79;100.00;94495.81;1034440;28;20489;-73
2021/12/08 00:06:37;;;;;;;10.57;5.90;;;;;;;-2.83;100.00;94489.53;1030270;28;20141;-73
2021/12/08 00:07:08;;;;;;;8.00;5.70;;;;;;;-2.87;100.00;94489.16;1028167;28;20018;-73
2021/12/08 00:07:38;;;;;;;7.63;5.70;;;;;;;-2.78;100.00;94503.31;1026238;28;20559;-72
2021/12/08 00:08:09;;;;;;;10.47;5.70;;;;;;;-2.80;100.00;94505.28;1026539;28;20512;-73
2021/12/08 00:08:45;;;;;;;10.03;5.80;;;;;;;-2.86;100.00;94496.63;1026973;28;20049;-72
2021/12/08 00:09:28;;;;;;;8.15;5.20;;;;;;;-2.86;100.00;94490.72;1027296;28;20548;-71
2021/12/08 00:10:17;;;;;;;9.30;5.20;;;;;;;-2.90;100.00;94485.22;1023898;28;20055;-71
2021/12/08 00:13:08;;;;;;;7.13;5.57;;;;;;;-2.89;100.00;94491.94;1028809;28;20283;-72
2021/12/08 00:13:38;;;;;;;8.30;5.13;;;;;;;-2.94;100.00;94483.31;1027691;28;20031;-74
2021/12/08 00:14:09;;;;;;;6.60;5.10;;;;;;;-2.94;100.00;94478.16;1018696;29;20561;-71
2021/12/08 00:14:39;;;;;;;9.70;5.50;;;;;;;-2.86;100.00;94498.44;1026403;28;20027;-71
2021/12/08 00:15:10;;;;;;;10.27;5.50;;;;;;;-2.87;100.00;94494.28;1028710;28;20023;-72
2021/12/08 00:15:45;;;;;;;8.97;5.53;;;;;;;-2.97;100.00;94476.03;1024542;28;20023;-73
2021/12/08 00:16:15;;;;;;;9.93;5.18;;;;;;;-2.95;100.00;94481.72;1022554;28;20437;-72
2021/12/08 00:16:46;;;;;;;7.93;5.47;;;;;;;-2.94;100.00;94480.75;1023864;28;20488;-71
2021/12/08 00:17:16;;;;;;;11.27;5.47;;;;;;;-2.87;100.00;94491.72;1022993;28;20134;-73
2021/12/08 00:17:47;;;;;;;7.70;5.13;;;;;;;-2.89;100.00;94501.41;1026210;28;20025;-72
2021/12/08 00:18:21;;;;;;;7.77;5.23;;;;;;;-2.88;100.00;94503.00;1025805;28;20050;-73
2021/12/08 00:18:57;;;;;;;9.57;5.82;;;;;;;-2.88;100.00;94495.31;1025243;28;20520;-73
2021/12/08 00:19:28;;;;;;;8.93;5.72;;;;;;;-2.87;100.00;94489.94;1026691;28;20029;-73
2021/12/08 00:20:01;;;;;;;7.95;5.07;;;;;;;-2.86;100.00;94490.72;1023455;28;20023;-73
2021/12/08 00:20:33;;;;;;;11.82;6.07;;;;;;;-2.96;100.00;94470.66;1024928;28;20106;-72
2021/12/08 00:21:04;;;;;;;8.73;5.38;;;;;;;-3.05;100.00;94463.44;1030095;28;20033;-73
2021/12/08 00:21:35;;;;;;;9.95;5.60;;;;;;;-2.95;100.00;94474.81;1025743;28;20034;-71
2021/12/08 00:22:05;;;;;;;9.03;5.43;;;;;;;-2.95;100.00;94476.56;1027040;28;20030;-73
2021/12/08 00:22:36;;;;;;;9.53;5.33;;;;;;;-2.94;100.00;94467.91;1018691;29;20035;-71
2021/12/08 00:23:07;;;;;;;7.90;5.07;;;;;;;-2.89;100.00;94480.88;1022598;28;20113;-71
2021/12/08 00:23:37;;;;;;;7.73;5.80;;;;;;;-2.87;100.00;94484.03;1026359;28;20066;-72
2021/12/08 00:24:08;;;;;;;8.27;5.27;;;;;;;-2.88;100.00;94477.34;1023499;28;20051;-73
2021/12/08 00:24:38;;;;;;;8.13;5.40;;;;;;;-3.09;100.00;94442.53;1030557;28;20037;-73
2021/12/08 00:25:09;;;;;;;7.13;5.07;;;;;;;-2.86;100.00;94475.31;1026458;28;20027;-73
2021/12/08 00:25:39;;;;;;;8.77;5.27;;;;;;;-2.87;100.00;94473.78;1027180;28;20694;-71
2021/12/08 00:26:10;;;;;;;8.97;5.50;;;;;;;-2.86;100.00;94473.53;1024363;28;20019;-70
2021/12/08 00:26:40;;;;;;;9.60;5.47;;;;;;;-2.92;100.00;94469.28;1024835;28;20031;-73
2021/12/08 00:27:11;;;;;;;8.27;5.80;;;;;;;-2.88;100.00;94470.41;1020338;28;20030;-72
2021/12/08 00:27:41;;;;;;;10.57;6.43;;;;;;;-2.83;100.00;94479.25;1025367;28;20479;-73
2021/12/08 00:28:12;;;;;;;7.30;5.30;;;;;;;-2.85;100.00;94471.75;1026349;28;20480;-73
2021/12/08 00:28:42;;;;;;;10.47;5.90;;;;;;;-2.80;100.00;94482.19;1025165;28;20143;-72
2021/12/08 00:29:13;;;;;;;11.03;5.83;;;;;;;-2.80;100.00;94471.16;1019940;29;20497;-72
2021/12/08 00:29:43;;;;;;;8.63;5.70;;;;;;;-2.80;100.00;94469.38;1014886;29;20140;-72
2021/12/08 00:30:15;;;;;;;10.07;6.07;;;;;;;-2.78;100.00;94471.69;1018639;28;20142;-73
2021/12/08 00:30:48;;;;;;;8.77;5.40;;;;;;;-3.05;100.00;94430.09;1031343;28;20504;-70
2021/12/08 00:31:19;;;;;;;9.13;5.57;;;;;;;-2.77;100.00;94468.94;1034918;28;20045;-70
2021/12/08 00:31:50;;;;;;;7.50;5.27;;;;;;;-2.78;100.00;94467.38;1034751;28;20033;-72
2021/12/08 00:32:26;;;;;;;9.25;5.50;;;;;;;-2.73;100.00;94466.75;1030392;28;20045;-70
2021/12/08 00:32:58;;;;;;;10.23;5.28;;;;;;;-2.74;100.00;94465.19;1030287;28;20137;-71
2021/12/08 00:34:05;;;;;;;9.95;5.20;;;;;;;-2.74;100.00;94452.34;1022572;28;20082;-66
2021/12/08 00:34:35;;;;;;;6.50;5.07;;;;;;;-2.69;100.00;94453.25;1016982;29;20046;-66
2021/12/08 00:35:06;;;;;;;7.93;5.27;;;;;;;-2.72;100.00;94452.91;1011733;29;20036;-66
2021/12/08 00:35:37;;;;;;;9.20;5.40;;;;;;;-2.68;100.00;94448.94;1018273;29;20120;-66
2021/12/08 00:36:11;;;;;;;9.80;5.83;;;;;;;-2.68;100.00;94448.94;1015329;29;20020;-66
2021/12/08 00:36:44;;;;;;;8.32;5.70;;;;;;;-2.72;100.00;94442.63;1012845;29;20028;-67
2021/12/08 00:37:15;;;;;;;9.15;5.43;;;;;;;-2.66;100.00;94440.00;1020296;29;20026;-67
2021/12/08 00:37:45;;;;;;;9.83;6.00;;;;;;;-2.67;100.00;94441.00;1020280;29;20055;-67
2021/12/08 00:38:17;;;;;;;7.30;5.20;;;;;;;-2.75;100.00;94431.03;1019086;29;20397;-67
2021/12/08 00:38:48;;;;;;;8.40;5.30;;;;;;;-2.65;100.00;94446.72;1015544;29;20574;-66
2021/12/08 00:39:18;;;;;;;8.77;5.90;;;;;;;-2.66;100.00;94429.72;1018974;29;20087;-67
2021/12/08 00:39:49;;;;;;;9.33;6.10;;;;;;;-2.71;100.00;94421.91;1019356;29;20051;-67
2021/12/08 00:40:19;;;;;;;8.83;6.00;;;;;;;-2.63;100.00;94434.44;1012400;29;20070;-66
2021/12/08 00:40:51;;;;;;;10.20;6.47;;;;;;;-2.63;100.00;94434.44;1011576;29;20025;-64
2021/12/08 00:41:21;;;;;;;9.52;6.05;;;;;;;-2.61;100.00;94436.81;1016514;29;20519;-67
2021/12/08 00:41:51;;;;;;;10.23;6.87;;;;;;;-2.63;100.00;94439.56;1023553;28;20112;-68
2021/12/08 00:42:22;;;;;;;10.90;6.13;;;;;;;-2.61;100.00;94437.59;1024778;28;20042;-66
2021/12/08 00:42:52;;;;;;;7.00;5.30;;;;;;;-2.59;100.00;94436.59;1018906;29;20028;-67
2021/12/08 00:43:23;;;;;;;7.63;5.13;;;;;;;-2.63;100.00;94433.66;1022666;29;20106;-69
2021/12/08 00:43:53;;;;;;;7.63;5.13;;;;;;;-2.67;100.00;94435.09;1026462;28;20388;-69
2021/12/08 00:44:24;;;;;;;7.73;5.13;;;;;;;-2.63;100.00;94428.53;1026109;28;20043;-69
2021/12/08 00:44:54;;;;;;;6.40;4.37;;;;;;;-2.61;100.00;94437.59;1022072;28;20079;-67
2021/12/08 00:45:25;;;;;;;7.47;4.80;;;;;;;-2.62;100.00;94438.59;1030538;28;20019;-67
2021/12/08 00:45:56;;;;;;;7.65;5.53;;;;;;;-2.67;100.00;94433.31;1030540;28;20029;-67
2021/12/08 00:46:26;;;;;;;11.13;6.60;;;;;;;-2.66;100.00;94439.22;1022799;29;20099;-67
2021/12/08 00:46:57;;;;;;;9.40;6.37;;;;;;;-2.59;100.00;94454.56;1014776;29;20020;-67
2021/12/08 00:47:27;;;;;;;8.40;6.23;;;;;;;-2.58;100.00;94454.38;1021363;29;20012;-67
2021/12/08 00:47:58;;;;;;;9.97;5.80;;;;;;;-2.60;100.00;94451.22;1018855;28;20035;-67
2021/12/08 00:48:28;;;;;;;6.87;5.17;;;;;;;-2.57;100.00;94455.16;1020446;28;20553;-67
2021/12/08 00:48:59;;;;;;;8.87;5.10;;;;;;;-2.56;100.00;94454.13;1020775;29;20031;-66
2021/12/08 00:49:29;;;;;;;8.25;5.63;;;;;;;-2.59;100.00;94455.34;1021275;29;20030;-66
2021/12/08 00:49:59;;;;;;;6.43;4.77;;;;;;;-2.56;100.00;94457.50;1023011;29;20042;-66
2021/12/08 00:50:32;;;;;;;5.87;4.67;;;;;;;-2.63;100.00;94449.84;1024643;28;20075;-67
2021/12/08 00:51:03;;;;;;;6.32;4.75;;;;;;;-2.58;100.00;94458.69;1022928;29;20054;-67
2021/12/08 00:51:33;;;;;;;6.67;4.90;;;;;;;-2.56;100.00;94465.19;1022634;29;20410;-65
2021/12/08 00:52:04;;;;;;;6.60;4.80;;;;;;;-2.58;100.00;94462.06;1015161;29;20024;-67
2021/12/08 00:52:35;;;;;;;8.50;4.80;;;;;;;-2.59;100.00;94459.69;1015215;29;20032;-67
2021/12/08 00:53:05;;;;;;;10.73;5.30;;;;;;;-2.57;100.00;94465.41;1015231;29;20040;-67
2021/12/08 00:53:36;;;;;;;7.67;5.37;;;;;;;-2.57;100.00;94462.84;1014785;29;20024;-67
2021/12/08 00:54:06;;;;;;;7.57;5.13;;;;;;;-2.58;100.00;94462.06;1019171;29;20023;-67
2021/12/08 00:54:37;;;;;;;7.93;4.37;;;;;;;-2.58;100.00;94466.38;1024184;28;20656;-67
2021/12/08 00:55:12;;;;;;;6.57;4.80;;;;;;;-2.59;100.00;94467.41;1030475;28;20092;-67
2021/12/08 00:55:42;;;;;;;7.30;5.20;;;;;;;-2.66;100.00;94460.53;1029252;28;20629;-67
2021/12/08 00:56:13;;;;;;;7.33;4.70;;;;;;;-2.64;100.00;94458.56;1018778;29;20117;-67
2021/12/08 00:56:43;;;;;;;7.60;4.77;;;;;;;-2.63;100.00;94465.25;1017879;29;20405;-67
2021/12/08 00:57:14;;;;;;;7.07;4.93;;;;;;;-2.64;100.00;94463.69;1014998;29;20032;-67
2021/12/08 00:57:45;;;;;;;9.93;4.80;;;;;;;-2.66;100.00;94460.53;1022436;29;20027;-72
2021/12/08 00:58:15;;;;;;;7.30;4.20;;;;;;;-2.65;100.00;94462.13;1019295;29;20023;-67
2021/12/08 00:58:45;;;;;;;6.63;4.50;;;;;;;-2.66;100.00;94455.41;1025889;28;20083;-67
2021/12/08 00:59:16;;;;;;;9.47;4.93;;;;;;;-2.65;100.00;94457.00;1027336;28;20031;-67
2021/12/08 00:59:50;;;;;;;7.53;4.80;;;;;;;-2.76;100.00;94449.97;1023914;28;20042;-67
2021/12/08 01:00:23;;;;;;;8.10;4.80;;;;;;;-2.71;100.00;94457.84;1022750;29;20113;-67
2021/12/08 01:00:53;;;;;;;7.57;4.78;;;;;;;-2.70;100.00;94459.41;1015018;29;20487;-67
2021/12/08 01:01:24;;;;;;;6.60;4.53;;;;;;;-2.71;100.00;94460.41;1015741;29;20040;-66
2021/12/08 01:01:57;;;;;;;7.45;5.03;;;;;;;-2.82;100.00;94440.53;1015317;29;20032;-67
2021/12/08 01:02:28;;;;;;;8.73;4.55;;;;;;;-2.76;100.00;94452.53;1023257;28;20027;-67
2021/12/08 01:02:59;;;;;;;8.17;4.60;;;;;;;-2.83;100.00;94451.81;1026584;28;20043;-68
2021/12/08 01:03:29;;;;;;;8.00;5.10;;;;;;;-2.79;100.00;94459.88;1018137;29;20148;-67
2021/12/08 01:04:00;;;;;;;7.80;4.80;;;;;;;-2.78;100.00;94461.44;1018964;29;20104;-67
2021/12/08 01:04:31;;;;;;;6.60;4.73;;;;;;;-2.79;100.00;94462.44;1017368;29;20031;-64
2021/12/08 01:05:01;;;;;;;7.40;4.60;;;;;;;-2.79;100.00;94465.00;1019298;29;20030;-67
2021/12/08 01:05:35;;;;;;;8.73;4.90;;;;;;;-2.82;100.00;94466.22;1024395;28;20027;-67
2021/12/08 01:06:06;;;;;;;6.47;4.45;;;;;;;-2.87;100.00;94456.59;1018993;29;20059;-68
2021/12/08 01:06:36;;;;;;;6.73;4.40;;;;;;;-2.85;100.00;94470.00;1020921;28;20122;-68
2021/12/08 01:07:07;;;;;;;6.97;5.00;;;;;;;-2.85;100.00;94464.06;1027243;28;20034;-67
2021/12/08 01:07:37;;;;;;;8.97;5.30;;;;;;;-2.91;100.00;94457.22;1030459;28;20022;-66
2021/12/08 01:08:08;;;;;;;8.53;4.80;;;;;;;-2.87;100.00;94460.94;1026816;28;20094;-67
2021/12/08 01:08:38;;;;;;;9.87;4.80;;;;;;;-2.87;100.00;94458.38;1019079;28;20111;-64
2021/12/08 01:09:10;;;;;;;6.87;4.67;;;;;;;-2.93;100.00;94443.81;1022923;28;20032;-67
2021/12/08 01:09:40;;;;;;;8.85;4.78;;;;;;;-2.84;100.00;94452.81;1025991;28;20030;-67
2021/12/08 01:10:14;;;;;;;7.67;4.97;;;;;;;-2.91;100.00;94449.53;1026663;28;20062;-67
2021/12/08 01:10:45;;;;;;;6.15;4.53;;;;;;;-2.82;100.00;94452.59;1021807;28;20062;-67
2021/12/08 01:11:17;;;;;;;10.40;4.70;;;;;;;-2.83;100.00;94454.38;1022041;28;20137;-67
2021/12/08 01:11:48;;;;;;;6.75;4.75;;;;;;;-2.91;100.00;94446.97;1022461;29;20038;-67
2021/12/08 01:12:19;;;;;;;6.47;4.30;;;;;;;-2.83;100.00;94456.94;1014722;29;20507;-67
2021/12/08 01:12:51;;;;;;;7.87;5.00;;;;;;;-2.82;100.00;94458.50;1014777;29;20025;-67
2021/12/08 01:13:22;;;;;;;9.35;5.57;;;;;;;-2.81;100.00;94457.53;1018761;29;20040;-67
2021/12/08 01:13:53;;;;;;;7.77;4.70;;;;;;;-2.81;100.00;94452.41;1019480;29;20031;-67
2021/12/08 01:14:23;;;;;;;6.93;4.80;;;;;;;-2.79;100.00;94450.38;1014743;29;20035;-67
2021/12/08 01:14:54;;;;;;;7.80;5.27;;;;;;;-2.77;100.00;94453.53;1015197;29;20506;-67
2021/12/08 01:15:26;;;;;;;8.87;4.67;;;;;;;-2.77;100.00;94450.19;1015045;29;20032;-67
2021/12/08 01:15:57;;;;;;;9.50;5.13;;;;;;;-2.76;100.00;94447.41;1022304;28;20106;-67
2021/12/08 01:16:27;;;;;;;9.00;4.90;;;;;;;-2.83;100.00;94433.06;1022516;29;20019;-67
2021/12/08 01:16:58;;;;;;;6.43;4.47;;;;;;;-2.75;100.00;94451.56;1020692;29;20024;-67
2021/12/08 01:17:28;;;;;;;8.13;4.87;;;;;;;-2.74;100.00;94449.78;1023956;28;20057;-67
2021/12/08 01:17:59;;;;;;;10.20;4.90;;;;;;;-2.76;100.00;94439.69;1026291;28;20030;-67
2021/12/08 01:18:30;;;;;;;6.50;4.33;;;;;;;-2.76;100.00;94433.78;1026701;28;20026;-68
2021/12/08 01:19:00;;;;;;;6.97;4.57;;;;;;;-2.74;100.00;94448.00;1019107;29;20020;-67
2021/12/08 01:19:31;;;;;;;6.43;4.03;;;;;;;-2.69;100.00;94444.78;1015053;29;20064;-66
2021/12/08 01:20:01;;;;;;;7.27;4.53;;;;;;;-2.72;100.00;94435.72;1014881;29;20549;-67
2021/12/08 01:20:32;;;;;;;6.47;4.57;;;;;;;-2.66;100.00;94445.13;1011235;29;20021;-65
2021/12/08 01:21:05;;;;;;;7.55;4.20;;;;;;;-2.67;100.00;94443.56;1021939;29;20035;-67
2021/12/08 01:21:35;;;;;;;6.78;4.63;;;;;;;-2.65;100.00;94443.34;1029140;28;20030;-68
2021/12/08 01:22:06;;;;;;;6.97;4.23;;;;;;;-2.70;100.00;94432.94;1021591;29;20027;-68
2021/12/08 01:22:37;;;;;;;6.23;4.30;;;;;;;-2.63;100.00;94444.72;1015955;29;20028;-68
2021/12/08 01:23:07;;;;;;;5.70;4.10;;;;;;;-2.59;100.00;94444.28;1020686;29;20028;-67
2021/12/08 01:23:38;;;;;;;5.73;4.03;;;;;;;-2.60;100.00;94448.66;1022781;28;20592;-68
2021/12/08 01:24:10;;;;;;;5.67;4.23;;;;;;;-2.64;100.00;94440.59;1019735;29;20836;-68
2021/12/08 01:24:40;;;;;;;7.85;4.20;;;;;;;-2.58;100.00;94446.66;1014614;29;20510;-68
2021/12/08 01:25:11;;;;;;;4.57;4.03;;;;;;;-2.57;100.00;94450.00;1018308;29;20029;-68
2021/12/08 01:25:41;;;;;;;5.60;4.07;;;;;;;-2.56;100.00;94449.00;1022921;28;20108;-68
2021/12/08 01:26:11;;;;;;;6.40;4.37;;;;;;;-2.55;100.00;94442.84;1022276;28;20023;-66
2021/12/08 01:26:42;;;;;;;7.67;3.93;;;;;;;-2.54;100.00;94441.88;1022602;29;20027;-67
2021/12/08 01:27:12;;;;;;;10.97;4.43;;;;;;;-2.53;100.00;94443.44;1022307;28;20881;-68
2021/12/08 01:27:43;;;;;;;5.93;4.10;;;;;;;-2.52;100.00;94445.00;1026375;28;20191;-67
2021/12/08 01:28:16;;;;;;;5.93;3.53;;;;;;;-2.52;100.00;94442.44;1022368;29;20404;-67
2021/12/08 01:28:47;;;;;;;6.07;3.60;;;;;;;-2.51;100.00;94441.47;1022588;29;20106;-68
2021/12/08 01:29:17;;;;;;;5.60;4.23;;;;;;;-2.66;100.00;94416.13;1020190;28;20035;-67
2021/12/08 01:29:48;;;;;;;8.87;4.20;;;;;;;-2.49;100.00;94444.59;1020529;28;20031;-67
2021/12/08 01:30:19;;;;;;;4.85;3.92;;;;;;;-2.49;100.00;94439.44;1029214;28;20018;-68
2021/12/08 01:30:51;;;;;;;7.40;4.27;;;;;;;-2.48;100.00;94446.16;1026097;28;20828;-67
2021/12/08 01:31:21;;;;;;;6.03;4.38;;;;;;;-2.47;100.00;94442.59;1024845;28;20026;-67
2021/12/08 01:31:52;;;;;;;6.10;4.20;;;;;;;-2.50;100.00;94432.75;1027332;28;20046;-67
2021/12/08 01:32:25;;;;;;;6.60;4.17;;;;;;;-2.56;100.00;94424.09;1026931;28;20046;-67
2021/12/08 01:32:56;;;;;;;6.12;4.08;;;;;;;-2.43;100.00;94438.59;1022493;29;20019;-67
2021/12/08 01:33:30;;;;;;;6.95;4.22;;;;;;;-2.51;100.00;94429.41;1024792;28;20022;-66
2021/12/08 01:34:00;;;;;;;6.70;4.30;;;;;;;-2.47;100.00;94437.47;1030782;28;20034;-67
2021/12/08 01:34:30;;;;;;;6.50;4.37;;;;;;;-2.52;100.00;94427.03;1022218;28;20023;-64
2021/12/08 01:35:01;;;;;;;4.50;3.67;;;;;;;-2.52;100.00;94427.03;1017405;29;20015;-67
2021/12/08 01:35:32;;;;;;;7.20;3.87;;;;;;;-2.45;100.00;94438.00;1018859;29;20130;-67
2021/12/08 01:36:04;;;;;;;6.93;4.43;;;;;;;-2.42;100.00;94435.03;1016993;29;20055;-67
2021/12/08 01:36:35;;;;;;;6.03;3.92;;;;;;;-2.42;100.00;94432.47;1020234;29;20038;-67
2021/12/08 01:37:06;;;;;;;6.47;3.90;;;;;;;-2.43;100.00;94429.09;1022169;28;20037;-66
2021/12/08 01:37:36;;;;;;;6.33;4.23;;;;;;;-2.46;100.00;94428.75;1016430;29;20051;-68
2021/12/08 01:38:07;;;;;;;5.93;4.18;;;;;;;-2.41;100.00;94439.19;1018962;28;20707;-67
2021/12/08 01:38:37;;;;;;;5.13;4.32;;;;;;;-2.43;100.00;94433.47;1025392;28;20106;-67
2021/12/08 01:39:08;;;;;;;7.77;3.93;;;;;;;-2.43;100.00;94438.59;1022807;28;20464;-66
2021/12/08 01:39:38;;;;;;;5.30;4.03;;;;;;;-2.45;100.00;94433.69;1022536;28;20153;-67
2021/12/08 01:40:10;;;;;;;5.13;4.17;;;;;;;-2.50;100.00;94430.19;1023171;28;20128;-67
2021/12/08 01:40:41;;;;;;;4.95;3.97;;;;;;;-2.49;100.00;94427.38;1028664;28;20077;-68
2021/12/08 01:41:12;;;;;;;7.10;4.40;;;;;;;-2.41;100.00;94441.75;1032442;28;20018;-67
2021/12/08 01:41:44;;;;;;;6.90;4.20;;;;;;;-2.43;100.00;94438.59;1022864;29;20062;-66
2021/12/08 01:42:26;;;;;;;10.42;4.50;;;;;;;-2.43;100.00;94441.94;1018079;29;20030;-66
2021/12/08 01:42:59;;;;;;;5.55;4.32;;;;;;;-2.42;100.00;94442.72;1024573;28;20382;-67
2021/12/08 01:43:41;;;;;;;9.35;4.82;;;;;;;-2.41;100.00;94449.47;1024465;28;20027;-67
2021/12/08 01:46:00;;;;;;;5.13;3.80;;;;;;;-2.45;100.00;94440.59;1019236;28;20398;-67
2021/12/08 01:46:30;;;;;;;6.85;3.75;;;;;;;-2.43;100.00;94444.50;1030444;28;20802;-66
2021/12/08 01:47:01;;;;;;;4.80;4.10;;;;;;;-2.44;100.00;94442.19;1027461;28;20086;-67
2021/12/08 01:47:31;;;;;;;6.63;4.13;;;;;;;-2.43;100.00;94446.31;1032024;28;20017;-67
2021/12/08 01:48:03;;;;;;;6.03;4.20;;;;;;;-2.44;100.00;94447.31;1030471;28;20023;-67
2021/12/08 01:48:37;;;;;;;6.43;4.60;;;;;;;-2.43;100.00;94444.50;1025957;28;20113;-68
2021/12/08 01:49:08;;;;;;;5.53;4.00;;;;;;;-2.45;100.00;94440.59;1022672;28;20026;-67
2021/12/08 01:49:38;;;;;;;10.82;4.88;;;;;;;-2.43;100.00;94443.72;1020425;29;20047;-67
2021/12/08 01:50:09;;;;;;;9.23;4.10;;;;;;;-2.43;100.00;94443.72;1023775;28;20042;-66
2021/12/08 01:50:40;;;;;;;6.13;3.97;;;;;;;-2.43;100.00;94443.72;1018943;29;20159;-67
2021/12/08 01:51:17;;;;;;;5.44;4.04;;;;;;;-2.44;100.00;94437.03;1018556;29;20035;-67
2021/12/08 01:51:48;;;;;;;6.28;3.90;;;;;;;-2.40;100.00;94445.88;1016630;29;20036;-67
2021/12/08 01:52:18;;;;;;;6.40;4.13;;;;;;;-2.43;100.00;94443.72;1014739;29;20386;-67
2021/12/08 01:52:49;;;;;;;6.45;4.32;;;;;;;-2.39;100.00;94444.88;1019577;28;20036;-67
2021/12/08 01:53:19;;;;;;;7.73;4.97;;;;;;;-2.38;100.00;94446.47;1026548;28;20023;-65
2021/12/08 01:53:52;;;;;;;6.25;4.03;;;;;;;-2.45;100.00;94433.69;1024232;28;20410;-67
2021/12/08 01:54:22;;;;;;;8.95;5.22;;;;;;;-2.35;100.00;94440.09;1019148;29;20406;-67
2021/12/08 01:54:53;;;;;;;6.80;4.72;;;;;;;-2.39;100.00;94444.88;1024894;28;20038;-66
2021/12/08 01:55:24;;;;;;;7.00;4.76;;;;;;;-2.36;100.00;94447.00;1022562;28;20026;-67
2021/12/08 01:55:55;;;;;;;7.20;4.55;;;;;;;-2.38;100.00;94439.53;1019467;28;20067;-67
2021/12/08 01:56:25;;;;;;;5.78;3.80;;;;;;;-2.34;100.00;94445.03;1018531;29;20031;-64
2021/12/08 01:56:57;;;;;;;8.57;4.55;;;;;;;-2.31;100.00;94443.78;1013141;29;20035;-67
2021/12/08 01:57:27;;;;;;;7.10;4.02;;;;;;;-2.32;100.00;94448.16;1021561;29;20038;-67
2021/12/08 01:57:58;;;;;;;6.20;4.53;;;;;;;-2.39;100.00;94429.47;1015344;29;20039;-68
2021/12/08 01:58:28;;;;;;;7.40;3.83;;;;;;;-2.34;100.00;94441.69;1022668;29;20039;-65
2021/12/08 01:58:59;;;;;;;6.93;3.93;;;;;;;-2.37;100.00;94433.41;1018629;29;20585;-67
2021/12/08 01:59:30;;;;;;;6.75;4.40;;;;;;;-2.38;100.00;94433.63;1022379;29;20023;-67
2021/12/08 02:00:00;;;;;;;6.83;4.20;;;;;;;-2.30;100.00;94445.38;1025571;28;20043;-67
2021/12/08 02:00:38;;;;;;;6.33;4.37;;;;;;;-2.38;100.00;94436.19;1025655;28;20026;-67
2021/12/08 02:01:10;;;;;;;8.13;3.90;;;;;;;-2.35;100.00;94440.88;1022171;28;20031;-65
2021/12/08 02:01:42;;;;;;;10.45;4.35;;;;;;;-2.35;100.00;94435.72;1024366;28;20370;-67
2021/12/08 02:02:13;;;;;;;7.32;3.92;;;;;;;-2.30;100.00;94447.94;1025753;28;20021;-67
2021/12/08 02:02:43;;;;;;;9.22;4.14;;;;;;;-2.41;100.00;94442.53;1023028;28;20042;-68
2021/12/08 02:03:15;;;;;;;5.32;4.10;;;;;;;-2.40;100.00;94436.38;1022986;29;20027;-68
2021/12/08 02:03:45;;;;;;;8.06;4.22;;;;;;;-2.36;100.00;94449.59;1024904;28;20058;-64
2021/12/08 02:04:16;;;;;;;6.07;4.50;;;;;;;-2.37;100.00;94442.88;1016936;29;20011;-68
2021/12/08 02:04:46;;;;;;;6.15;4.03;;;;;;;-2.34;100.00;94449.38;1022304;29;20024;-67
2021/12/08 02:05:17;;;;;;;6.20;4.20;;;;;;;-2.34;100.00;94451.97;1022648;28;20024;-67
2021/12/08 02:05:48;;;;;;;6.45;4.22;;;;;;;-2.38;100.00;94446.47;1015457;29;20111;-67
2021/12/08 02:06:19;;;;;;;5.80;4.10;;;;;;;-2.42;100.00;94451.22;1019183;29;20255;-66
2021/12/08 02:06:49;;;;;;;7.28;4.25;;;;;;;-2.43;100.00;94446.31;1023236;28;20116;-66
2021/12/08 02:07:20;;;;;;;7.83;4.60;;;;;;;-2.44;100.00;94442.94;1027848;28;20026;-67
2021/12/08 02:07:51;;;;;;;9.63;4.20;;;;;;;-2.51;100.00;94436.31;1025771;28;20042;-68
2021/12/08 02:08:21;;;;;;;7.05;5.22;;;;;;;-2.49;100.00;94434.31;1022793;29;20022;-67
2021/12/08 02:08:52;;;;;;;6.55;4.78;;;;;;;-2.42;100.00;94445.28;1024493;28;20266;-67
2021/12/08 02:09:22;;;;;;;7.50;4.20;;;;;;;-2.42;100.00;94445.28;1019291;29;20482;-67
2021/12/08 02:09:53;;;;;;;6.30;4.70;;;;;;;-2.41;100.00;94446.88;1016737;29;20102;-68
2021/12/08 02:10:23;;;;;;;9.65;5.40;;;;;;;-2.43;100.00;94444.50;1018996;29;20028;-64
2021/12/08 02:10:54;;;;;;;23.17;15.52;;;;;;;-2.43;100.00;94448.88;1019096;29;20070;-68
2021/12/08 02:11:25;;;;;;;22.08;14.80;;;;;;;-2.44;100.00;94439.59;1023693;28;20016;-66
2021/12/08 02:11:56;;;;;;;27.15;16.80;;;;;;;-2.42;100.00;94445.28;1018867;29;20020;-67
2021/12/08 02:12:29;;;;;;;25.52;16.18;;;;;;;-2.41;100.00;94437.41;1019637;29;20078;-67
2021/12/08 02:12:59;;;;;;;32.03;20.60;;;;;;;-2.49;100.00;94429.97;1018612;29;20401;-67
2021/12/08 02:13:36;;;;;;;34.73;21.67;;;;;;;-2.41;100.00;94434.81;1015927;29;20020;-67
2021/12/08 02:14:07;;;;;;;28.14;17.28;;;;;;;-2.48;100.00;94433.31;1016114;29;20520;-67
2021/12/08 02:14:39;;;;;;;26.14;16.86;;;;;;;-2.51;100.00;94420.91;1010681;29;20012;-67
2021/12/08 02:15:12;;;;;;;21.96;13.80;;;;;;;-2.47;100.00;94422.06;1018487;29;20450;-66
2021/12/08 02:15:42;;;;;;;21.55;13.25;;;;;;;-2.38;100.00;94431.06;1027112;28;20427;-67
2021/12/08 02:16:14;;;;;;;16.75;11.30;;;;;;;-2.43;100.00;94420.63;1020895;29;20046;-67
2021/12/08 02:16:46;;;;;;;15.20;8.84;;;;;;;-2.38;100.00;94425.91;1019284;29;20024;-64
2021/12/08 02:17:16;;;;;;;10.40;6.43;;;;;;;-2.37;100.00;94427.47;1018260;29;20514;-65
2021/12/08 02:17:50;;;;;;;8.23;6.25;;;;;;;-2.38;100.00;94416.41;1016021;29;20041;-68
2021/12/08 02:18:21;;;;;;;7.82;4.24;;;;;;;-2.37;100.00;94420.56;1019498;29;20059;-66
2021/12/08 02:18:52;;;;;;;6.78;5.13;;;;;;;-2.36;100.00;94413.63;1019634;29;20031;-68
2021/12/08 02:19:23;;;;;;;9.16;4.64;;;;;;;-2.38;100.00;94410.50;1015006;29;20024;-65
2021/12/08 02:19:53;;;;;;;7.30;4.18;;;;;;;-2.38;100.00;94415.66;1020287;29;20027;-67
2021/12/08 02:20:25;;;;;;;11.87;4.27;;;;;;;-2.39;100.00;94419.97;1015505;29;20035;-67
2021/12/08 02:20:59;;;;;;;7.30;4.80;;;;;;;-2.38;100.00;94421.56;1021707;28;20028;-66
2021/12/08 02:21:34;;;;;;;7.78;5.04;;;;;;;-2.36;100.00;94421.34;1022874;29;20406;-66
2021/12/08 02:22:05;;;;;;;7.38;4.60;;;;;;;-2.43;100.00;94415.47;1023879;28;20035;-67
2021/12/08 02:22:36;;;;;;;7.57;4.63;;;;;;;-2.38;100.00;94424.13;1016778;29;20469;-65
2021/12/08 02:23:06;;;;;;;8.40;4.43;;;;;;;-2.56;100.00;94383.03;1013173;29;20021;-67
2021/12/08 02:23:37;;;;;;;7.47;4.40;;;;;;;-2.32;100.00;94414.75;1015200;29;20020;-67
2021/12/08 02:24:10;;;;;;;7.23;4.10;;;;;;;-2.41;100.00;94406.56;1015302;28;20032;-65
2021/12/08 02:24:40;;;;;;;7.35;4.32;;;;;;;-2.36;100.00;94411.06;1021283;29;20690;-67
2021/12/08 02:25:14;;;;;;;9.77;5.50;;;;;;;-2.38;100.00;94410.50;1018520;29;20165;-67
2021/12/08 02:25:45;;;;;;;5.56;3.82;;;;;;;-2.38;100.00;94403.56;1019161;29;20051;-67
2021/12/08 02:26:16;;;;;;;6.80;4.30;;;;;;;-2.42;100.00;94396.50;1014834;29;20066;-66
2021/12/08 02:26:47;;;;;;;11.50;4.80;;;;;;;-2.42;100.00;94394.72;1018964;29;20047;-66
2021/12/08 02:27:17;;;;;;;5.97;4.18;;;;;;;-2.41;100.00;94392.94;1021461;29;20088;-67
2021/12/08 02:27:48;;;;;;;5.80;4.00;;;;;;;-2.35;100.00;94397.22;1022971;28;20083;-67
2021/12/08 02:28:18;;;;;;;6.05;4.05;;;;;;;-2.40;100.00;94402.22;1020972;29;20034;-68
2021/12/08 02:28:49;;;;;;;6.72;4.28;;;;;;;-2.33;100.00;94407.28;1011270;29;20036;-67
2021/12/08 02:29:29;;;;;;;6.77;4.13;;;;;;;-2.41;100.00;94406.56;1010725;29;20028;-67
2021/12/08 02:30:11;;;;;;;4.97;3.85;;;;;;;-2.32;100.00;94412.19;1016969;29;20692;-63
2021/12/08 02:30:54;;;;;;;8.85;4.78;;;;;;;-2.29;100.00;94416.91;1023958;28;20042;-64